Time;durP1;ratioP1;P1;durP2;ratioP2;P2;SDS_P1;SDS_P2;PMS_P1;PMS_P2;Temp;Humidity;BMP_temperature;BMP_pressure;BME280_temperature;BME280_humidity;BME280_pressure;Samples;Min_cycle;Max_cycle;Signal;HPM_P1;HPM_P2
2022/01/31 00:02:06;;;;;;;19.65;3.72;;;5.80;80.00;;;;;;9177121;19;20082;-65
2022/01/31 00:05:14;;;;;;;19.42;4.28;;;5.80;80.00;;;;;;9176907;19;20022;-66
2022/01/31 00:08:23;;;;;;;22.75;5.00;;;5.80;80.00;;;;;;9174250;19;20018;-65
2022/01/31 00:11:28;;;;;;;17.55;4.20;;;5.70;80.00;;;;;;9175542;19;20021;-65
2022/01/31 00:14:38;;;;;;;20.65;4.75;;;5.70;80.00;;;;;;9176210;19;20027;-65
2022/01/31 00:17:43;;;;;;;21.30;4.10;;;5.70;80.00;;;;;;9172283;19;20018;-65
2022/01/31 00:20:51;;;;;;;19.25;4.68;;;5.70;80.10;;;;;;9178519;19;20022;-65
2022/01/31 00:23:56;;;;;;;15.77;4.15;;;5.70;80.00;;;;;;9177099;19;20018;-65
2022/01/31 00:27:02;;;;;;;21.77;4.70;;;5.70;80.10;;;;;;9173651;19;20361;-66
2022/01/31 00:30:09;;;;;;;18.33;3.88;;;5.70;80.10;;;;;;9174260;19;20480;-65
2022/01/31 00:33:14;;;;;;;19.30;4.30;;;5.70;80.20;;;;;;9175377;19;20737;-65
2022/01/31 00:36:22;;;;;;;17.83;4.53;;;5.70;80.10;;;;;;9173426;19;20027;-65
2022/01/31 00:39:27;;;;;;;20.20;3.90;;;5.80;80.20;;;;;;9177205;19;20018;-66
2022/01/31 00:42:32;;;;;;;20.98;3.75;;;5.70;80.10;;;;;;9174911;19;20367;-65
2022/01/31 00:45:44;;;;;;;20.83;4.32;;;5.70;80.10;;;;;;9174021;19;20475;-66
2022/01/31 00:48:50;;;;;;;22.48;4.43;;;5.70;80.10;;;;;;9173088;19;20026;-65
2022/01/31 00:51:58;;;;;;;18.02;4.03;;;5.80;80.20;;;;;;9175080;19;20030;-65
2022/01/31 00:55:03;;;;;;;23.10;4.82;;;5.80;80.20;;;;;;9174913;19;20022;-66
2022/01/31 00:58:08;;;;;;;18.52;4.38;;;5.80;80.20;;;;;;9172055;19;20018;-66
2022/01/31 01:01:13;;;;;;;18.83;4.32;;;5.80;80.30;;;;;;9175006;19;20026;-66
2022/01/31 01:04:18;;;;;;;17.42;4.53;;;5.80;80.30;;;;;;9175346;19;20025;-65
2022/01/31 01:07:26;;;;;;;29.70;5.88;;;5.80;80.30;;;;;;9172848;19;20034;-65
2022/01/31 01:10:31;;;;;;;21.80;4.35;;;5.80;80.30;;;;;;9176901;19;20025;-66
2022/01/31 01:13:37;;;;;;;27.20;5.80;;;5.80;80.30;;;;;;9171752;19;20268;-65
2022/01/31 01:16:42;;;;;;;13.30;3.85;;;5.80;80.30;;;;;;9174320;19;20015;-65
2022/01/31 01:19:47;;;;;;;15.98;4.20;;;5.80;80.30;;;;;;9170535;19;20369;-65
2022/01/31 01:22:54;;;;;;;21.80;5.65;;;5.80;80.30;;;;;;9175257;19;20023;-66
2022/01/31 01:25:59;;;;;;;17.60;5.68;;;5.90;80.40;;;;;;9175388;19;20664;-66
2022/01/31 01:29:05;;;;;;;24.63;5.80;;;5.90;80.40;;;;;;9171297;19;20037;-65
2022/01/31 01:32:10;;;;;;;16.65;4.40;;;5.90;80.40;;;;;;9171433;19;20029;-65
2022/01/31 01:35:15;;;;;;;22.42;4.85;;;5.90;80.40;;;;;;9174352;19;20029;-67
2022/01/31 01:38:29;;;;;;;18.17;5.03;;;5.90;80.40;;;;;;9171762;19;20010;-66
2022/01/31 01:41:35;;;;;;;16.88;4.97;;;5.90;80.40;;;;;;9173733;19;20015;-66
2022/01/31 01:44:45;;;;;;;25.85;5.45;;;5.90;80.40;;;;;;9171198;19;20026;-68
2022/01/31 01:47:51;;;;;;;23.80;4.97;;;5.90;80.50;;;;;;9175196;19;20014;-66
2022/01/31 01:50:58;;;;;;;21.00;5.07;;;5.90;80.50;;;;;;9181398;19;20476;-66
2022/01/31 01:54:05;;;;;;;21.25;5.25;;;5.90;80.60;;;;;;9183973;19;20353;-68
2022/01/31 01:57:11;;;;;;;19.77;4.78;;;5.90;80.70;;;;;;9182724;19;20488;-66
2022/01/31 02:00:25;;;;;;;14.00;4.93;;;5.90;80.70;;;;;;9178322;19;20018;-65
2022/01/31 02:03:31;;;;;;;18.90;5.18;;;5.90;80.70;;;;;;9178012;19;20114;-65
2022/01/31 02:06:36;;;;;;;26.83;5.68;;;5.90;80.80;;;;;;9180090;19;20014;-66
2022/01/31 02:09:53;;;;;;;15.02;4.68;;;5.90;80.90;;;;;;9178563;19;20019;-65
2022/01/31 02:12:58;;;;;;;22.98;5.45;;;5.80;80.90;;;;;;9181315;19;20025;-65
2022/01/31 02:16:22;;;;;;;25.05;5.20;;;5.80;80.90;;;;;;9179179;19;20019;-66
2022/01/31 02:19:35;;;;;;;20.13;4.28;;;5.80;81.60;;;;;;9174209;19;20512;-66
2022/01/31 02:22:57;;;;;;;19.02;5.30;;;5.80;81.00;;;;;;9178460;19;20107;-66
2022/01/31 02:26:15;;;;;;;19.40;4.57;;;5.80;81.10;;;;;;9179702;19;20011;-66
2022/01/31 02:29:26;;;;;;;16.45;4.22;;;5.70;81.10;;;;;;9176857;19;20022;-65
2022/01/31 02:32:32;;;;;;;7.03;3.40;;;5.70;81.20;;;;;;9180068;19;20026;-66
2022/01/31 02:35:39;;;;;;;11.25;4.32;;;5.60;81.10;;;;;;9178389;19;20022;-66
2022/01/31 02:38:46;;;;;;;11.00;4.18;;;5.60;81.10;;;;;;9177903;19;20015;-66
2022/01/31 02:41:51;;;;;;;11.43;4.28;;;5.60;81.20;;;;;;9179780;19;20026;-65
2022/01/31 02:44:56;;;;;;;10.70;4.13;;;5.50;81.20;;;;;;9181183;19;20019;-65
2022/01/31 02:48:03;;;;;;;10.40;3.67;;;5.50;81.40;;;;;;9176851;19;20025;-66
2022/01/31 02:51:12;;;;;;;9.80;3.83;;;5.50;81.40;;;;;;9180129;19;20026;-65
2022/01/31 02:54:19;;;;;;;12.13;4.20;;;5.40;81.40;;;;;;9178959;19;20019;-67
2022/01/31 02:57:25;;;;;;;9.80;3.50;;;5.40;81.50;;;;;;9180323;19;20021;-66
2022/01/31 03:00:30;;;;;;;10.65;3.55;;;5.40;81.60;;;;;;9175932;19;20357;-67
2022/01/31 03:03:46;;;;;;;8.02;3.40;;;5.40;81.60;;;;;;9176564;19;20853;-65
2022/01/31 03:06:53;;;;;;;5.25;3.17;;;5.30;81.60;;;;;;9178198;19;20015;-66
2022/01/31 03:10:03;;;;;;;8.85;2.88;;;5.30;81.80;;;;;;9176551;19;20007;-66
2022/01/31 03:13:10;;;;;;;10.32;3.30;;;5.30;81.70;;;;;;9179010;19;20379;-67
2022/01/31 03:16:21;;;;;;;7.28;3.08;;;5.30;81.80;;;;;;9178787;19;20018;-66
2022/01/31 03:19:54;;;;;;;13.15;3.72;;;5.30;81.90;;;;;;9176568;19;20014;-66
2022/01/31 03:23:00;;;;;;;6.32;3.72;;;5.20;82.00;;;;;;9176664;19;20011;-67
2022/01/31 03:26:07;;;;;;;7.13;3.17;;;5.20;82.00;;;;;;9178167;19;20055;-66
2022/01/31 03:29:13;;;;;;;5.57;2.38;;;5.20;82.00;;;;;;9176980;19;20019;-66
2022/01/31 03:32:18;;;;;;;5.07;2.78;;;5.20;82.10;;;;;;9178047;19;20014;-66
2022/01/31 03:35:23;;;;;;;5.03;3.00;;;5.20;82.20;;;;;;9179006;19;20399;-66
2022/01/31 03:38:28;;;;;;;9.15;3.28;;;5.20;82.20;;;;;;9174611;19;20014;-66
2022/01/31 03:41:36;;;;;;;6.90;3.30;;;5.20;82.30;;;;;;9176530;19;20333;-66
2022/01/31 03:44:42;;;;;;;8.43;4.07;;;5.20;82.40;;;;;;9178318;19;20022;-66
2022/01/31 03:47:48;;;;;;;13.18;3.75;;;5.20;82.40;;;;;;9176839;19;20018;-66
2022/01/31 03:50:53;;;;;;;9.02;3.30;;;5.30;82.50;;;;;;9177924;19;20010;-66
2022/01/31 03:53:58;;;;;;;7.97;3.47;;;5.20;82.50;;;;;;9175074;19;20392;-66
2022/01/31 03:57:07;;;;;;;7.28;3.35;;;5.30;82.60;;;;;;9176563;19;20014;-66
2022/01/31 04:00:31;;;;;;;7.90;3.53;;;5.30;82.70;;;;;;9177247;19;20082;-66
2022/01/31 04:03:36;;;;;;;11.50;4.10;;;5.30;82.80;;;;;;9176978;19;20018;-66
2022/01/31 04:06:41;;;;;;;7.00;3.83;;;5.30;82.90;;;;;;9178978;19;20015;-68
2022/01/31 04:09:46;;;;;;;7.97;3.90;;;5.30;83.00;;;;;;9173725;19;20019;-67
2022/01/31 04:12:54;;;;;;;9.32;4.20;;;5.40;83.10;;;;;;9175674;19;20490;-67
2022/01/31 04:15:59;;;;;;;7.82;4.10;;;5.40;83.10;;;;;;9175860;19;20108;-66
2022/01/31 04:19:04;;;;;;;10.82;3.60;;;5.50;83.20;;;;;;9173613;19;20021;-67
2022/01/31 04:22:13;;;;;;;15.00;3.60;;;5.50;83.30;;;;;;9176313;19;20017;-68
2022/01/31 04:25:28;;;;;;;11.15;3.63;;;5.50;83.30;;;;;;9175445;19;20014;-67
2022/01/31 04:28:43;;;;;;;8.20;3.17;;;5.60;83.40;;;;;;9175660;19;20025;-67
2022/01/31 04:31:51;;;;;;;8.70;2.90;;;5.60;83.50;;;;;;9176614;19;20018;-67
2022/01/31 04:34:56;;;;;;;12.15;3.22;;;5.70;83.60;;;;;;9177181;19;20458;-66
2022/01/31 04:38:01;;;;;;;10.65;2.22;;;5.70;83.60;;;;;;9178603;19;20021;-67
2022/01/31 04:41:06;;;;;;;8.07;1.80;;;5.70;83.60;;;;;;9173794;19;20021;-67
2022/01/31 04:44:13;;;;;;;11.50;2.63;;;5.80;83.60;;;;;;9174055;19;20415;-67
2022/01/31 04:47:18;;;;;;;8.07;1.58;;;5.80;83.70;;;;;;9175695;19;20360;-67
2022/01/31 04:50:23;;;;;;;7.60;1.48;;;5.80;83.70;;;;;;9174657;19;20057;-67
2022/01/31 04:53:29;;;;;;;7.25;1.63;;;5.80;83.70;;;;;;9174922;19;20498;-67
2022/01/31 04:56:36;;;;;;;7.00;1.80;;;5.90;83.70;;;;;;9175452;19;20066;-67
2022/01/31 04:59:44;;;;;;;14.80;1.77;;;5.90;83.80;;;;;;9174041;19;20014;-67
2022/01/31 05:02:48;;;;;;;8.32;2.08;;;6.00;83.90;;;;;;9176071;19;20018;-70
2022/01/31 05:05:54;;;;;;;12.40;1.80;;;6.00;83.80;;;;;;9176179;19;20026;-67
2022/01/31 05:08:59;;;;;;;8.48;1.77;;;6.00;84.50;;;;;;9176902;19;20090;-67
2022/01/31 05:12:04;;;;;;;8.35;1.58;;;6.00;83.90;;;;;;9173947;19;20553;-67
2022/01/31 05:15:12;;;;;;;12.68;2.00;;;6.10;84.00;;;;;;9172403;19;20051;-67
2022/01/31 05:18:17;;;;;;;12.90;2.15;;;6.10;84.00;;;;;;9170703;19;20082;-67
2022/01/31 05:21:22;;;;;;;7.30;1.70;;;6.10;84.00;;;;;;9174239;19;20086;-67
2022/01/31 05:24:27;;;;;;;14.68;1.75;;;6.10;84.00;;;;;;9183296;19;20018;-68
2022/01/31 05:27:32;;;;;;;18.25;2.17;;;6.20;84.00;;;;;;9182141;19;20018;-67
2022/01/31 05:30:39;;;;;;;10.40;1.80;;;6.20;84.00;;;;;;9180102;19;20926;-68
2022/01/31 05:33:44;;;;;;;10.95;1.77;;;6.20;84.00;;;;;;9181191;19;20495;-68
2022/01/31 05:36:51;;;;;;;11.82;3.05;;;6.30;84.00;;;;;;9184471;19;20022;-68
2022/01/31 05:39:56;;;;;;;10.38;1.80;;;6.30;83.90;;;;;;9185121;19;20119;-68
2022/01/31 05:43:01;;;;;;;13.57;1.70;;;6.30;83.90;;;;;;9180716;19;20668;-67
2022/01/31 05:46:08;;;;;;;13.30;1.98;;;6.30;83.90;;;;;;9179463;19;20018;-68
2022/01/31 05:49:14;;;;;;;10.32;1.95;;;6.30;83.90;;;;;;9180964;19;20039;-68
2022/01/31 05:52:19;;;;;;;15.38;2.60;;;6.30;83.90;;;;;;9182888;19;20018;-68
2022/01/31 05:55:24;;;;;;;26.75;3.25;;;6.30;83.90;;;;;;9183905;19;20011;-68
2022/01/31 05:58:29;;;;;;;12.15;1.95;;;6.30;83.90;;;;;;9179382;19;20022;-67
2022/01/31 06:01:39;;;;;;;7.32;1.77;;;6.30;83.90;;;;;;9178853;19;20579;-66
2022/01/31 06:04:44;;;;;;;3.97;0.88;;;6.30;84.00;;;;;;9182899;19;20562;-66
2022/01/31 06:07:50;;;;;;;10.57;1.85;;;6.30;84.00;;;;;;9180417;19;20719;-66
2022/01/31 06:10:55;;;;;;;4.93;1.05;;;6.20;84.00;;;;;;9181374;19;20021;-66
2022/01/31 06:14:00;;;;;;;8.30;1.60;;;6.20;84.00;;;;;;9179449;19;20034;-66
2022/01/31 06:17:08;;;;;;;5.82;1.08;;;6.20;84.20;;;;;;9174271;19;20019;-66
2022/01/31 06:20:13;;;;;;;5.03;1.30;;;6.20;84.20;;;;;;9180318;19;20041;-66
2022/01/31 06:23:18;;;;;;;8.63;1.13;;;6.20;84.20;;;;;;9182446;19;20052;-66
2022/01/31 06:26:24;;;;;;;9.32;1.50;;;6.20;84.30;;;;;;9181041;19;20025;-66
2022/01/31 06:29:49;;;;;;;8.43;1.30;;;6.20;84.20;;;;;;9178495;19;20023;-66
2022/01/31 06:33:05;;;;;;;;;;;6.20;84.30;;;;;;9175656;19;20034;-67
2022/01/31 06:36:11;;;;;;;6.93;1.70;;;6.20;84.20;;;;;;9178241;19;20341;-66
2022/01/31 06:39:16;;;;;;;10.07;1.70;;;6.20;84.20;;;;;;9181267;19;20030;-66
2022/01/31 06:42:20;;;;;;;13.65;2.03;;;6.20;84.30;;;;;;9179999;19;20025;-66
2022/01/31 06:45:25;;;;;;;17.08;2.13;;;6.20;84.30;;;;;;9179706;19;20019;-66
2022/01/31 06:48:33;;;;;;;10.57;1.90;;;6.20;84.40;;;;;;9178098;19;20020;-68
2022/01/31 06:51:38;;;;;;;14.93;3.47;;;6.20;84.50;;;;;;9178883;19;20058;-66
2022/01/31 06:54:44;;;;;;;14.27;2.35;;;6.20;84.50;;;;;;9181298;19;20015;-67
2022/01/31 06:57:51;;;;;;;15.57;2.05;;;6.20;84.50;;;;;;9179765;19;20068;-68
2022/01/31 07:00:58;;;;;;;14.68;2.10;;;6.20;84.60;;;;;;9176106;19;20037;-67
2022/01/31 07:04:06;;;;;;;14.93;2.25;;;6.30;84.60;;;;;;9176154;19;20401;-67
2022/01/31 07:07:11;;;;;;;8.95;1.70;;;6.20;84.70;;;;;;9174121;19;20021;-67
2022/01/31 07:10:16;;;;;;;12.13;1.77;;;6.30;84.70;;;;;;9174808;19;20029;-67
2022/01/31 07:13:36;;;;;;;6.25;1.60;;;6.30;84.70;;;;;;9178206;19;20018;-67
2022/01/31 07:16:42;;;;;;;8.73;1.17;;;6.30;84.80;;;;;;9179535;19;20116;-67
2022/01/31 07:19:49;;;;;;;7.07;1.45;;;6.30;84.80;;;;;;9170590;19;20023;-66
2022/01/31 07:23:00;;;;;;;5.80;1.58;;;6.30;84.90;;;;;;9170703;19;20379;-67
2022/01/31 07:26:08;;;;;;;7.60;1.73;;;6.30;84.80;;;;;;9173575;19;20019;-67
2022/01/31 07:29:13;;;;;;;5.45;1.17;;;6.30;84.90;;;;;;9171371;19;20400;-66
2022/01/31 07:32:19;;;;;;;6.35;0.80;;;6.30;84.80;;;;;;9166272;19;20040;-66
2022/01/31 07:35:27;;;;;;;8.25;1.15;;;6.30;84.80;;;;;;9170008;19;20026;-66
2022/01/31 07:38:32;;;;;;;9.95;2.00;;;6.30;84.90;;;;;;9171081;19;20025;-65
2022/01/31 07:41:37;;;;;;;7.68;1.25;;;6.30;85.00;;;;;;9174231;19;20341;-67
2022/01/31 07:44:42;;;;;;;7.47;1.85;;;6.30;84.90;;;;;;9166255;19;20026;-66
2022/01/31 07:47:47;;;;;;;4.85;1.58;;;6.30;84.90;;;;;;9177953;19;20014;-66
2022/01/31 07:50:55;;;;;;;13.18;1.35;;;6.40;85.00;;;;;;9175661;19;20022;-66
2022/01/31 07:54:00;;;;;;;4.93;1.60;;;6.40;85.10;;;;;;9174729;19;20830;-66
2022/01/31 07:57:06;;;;;;;7.75;1.48;;;6.30;85.00;;;;;;9174579;19;20022;-67
2022/01/31 08:00:32;;;;;;;6.72;1.60;;;6.40;85.10;;;;;;9177812;19;20056;-67
2022/01/31 08:03:38;;;;;;;8.52;1.38;;;6.40;85.10;;;;;;9178268;19;20021;-67
2022/01/31 08:06:45;;;;;;;7.57;1.80;;;6.40;85.20;;;;;;9176004;19;20543;-67
2022/01/31 08:09:50;;;;;;;15.15;2.00;;;6.40;85.20;;;;;;9172713;19;20022;-66
2022/01/31 08:12:56;;;;;;;11.27;1.40;;;6.40;85.20;;;;;;9174958;19;20010;-66
2022/01/31 08:16:13;;;;;;;8.27;1.10;;;6.40;85.20;;;;;;9174880;19;20010;-67
2022/01/31 08:19:18;;;;;;;7.80;1.27;;;6.40;85.30;;;;;;9170593;19;20015;-66
2022/01/31 08:22:46;;;;;;;9.13;2.05;;;6.40;85.30;;;;;;9176625;19;20086;-66
2022/01/31 08:25:51;;;;;;;9.60;1.58;;;6.40;85.30;;;;;;9173373;19;20486;-66
2022/01/31 08:28:59;;;;;;;9.90;1.35;;;6.40;85.30;;;;;;9172644;19;20111;-66
2022/01/31 08:32:32;;;;;;;4.38;1.20;;;6.40;85.40;;;;;;9174128;19;20015;-66
2022/01/31 08:35:52;;;;;;;11.43;1.58;;;6.40;85.40;;;;;;9174575;19;20018;-67
2022/01/31 08:39:01;;;;;;;9.50;1.38;;;6.40;85.40;;;;;;9174641;19;20014;-67
2022/01/31 08:42:07;;;;;;;7.55;1.20;;;6.40;85.50;;;;;;9176686;19;20056;-66
2022/01/31 08:45:12;;;;;;;2.80;0.68;;;6.40;85.50;;;;;;9173325;19;20389;-67
2022/01/31 08:48:17;;;;;;;5.72;1.00;;;6.40;85.50;;;;;;9172965;19;20026;-67
2022/01/31 08:51:22;;;;;;;5.57;1.15;;;6.40;85.70;;;;;;9174707;19;20025;-67
2022/01/31 08:54:30;;;;;;;3.28;1.00;;;6.40;85.60;;;;;;9173893;19;20608;-67
2022/01/31 08:57:35;;;;;;;5.57;1.38;;;6.50;85.70;;;;;;9181391;19;20014;-67
2022/01/31 09:00:40;;;;;;;10.93;2.30;;;6.50;85.70;;;;;;9179274;19;20500;-68
2022/01/31 09:04:00;;;;;;;7.82;2.53;;;6.50;85.70;;;;;;9180792;19;20753;-66
2022/01/31 09:07:06;;;;;;;10.15;1.65;;;6.50;85.80;;;;;;9180538;19;20015;-67
2022/01/31 09:10:13;;;;;;;8.52;1.65;;;6.50;85.80;;;;;;9180058;19;20043;-67
2022/01/31 09:13:19;;;;;;;8.65;1.70;;;6.50;85.90;;;;;;9183706;19;20468;-67
2022/01/31 09:16:25;;;;;;;14.95;2.67;;;6.50;85.90;;;;;;9181890;19;20381;-67
2022/01/31 09:19:30;;;;;;;9.32;2.00;;;6.50;85.90;;;;;;9175618;19;20014;-67
2022/01/31 09:22:35;;;;;;;14.45;2.25;;;6.60;86.10;;;;;;9180000;19;20419;-68
2022/01/31 09:25:46;;;;;;;17.35;2.97;;;6.60;86.10;;;;;;9181665;19;20057;-67
2022/01/31 09:28:53;;;;;;;16.45;3.22;;;6.60;86.20;;;;;;9183434;19;20796;-67
2022/01/31 09:31:59;;;;;;;14.30;1.88;;;6.70;86.30;;;;;;9179619;19;20019;-68
2022/01/31 09:35:05;;;;;;;14.10;2.40;;;6.70;86.30;;;;;;9178078;19;20019;-68
2022/01/31 09:38:12;;;;;;;12.18;1.95;;;6.70;86.40;;;;;;9179570;19;20026;-66
2022/01/31 09:41:24;;;;;;;14.13;2.42;;;6.70;86.40;;;;;;9180971;19;20026;-68
2022/01/31 09:44:42;;;;;;;12.43;1.70;;;6.80;86.50;;;;;;9182571;19;20018;-67
2022/01/31 09:51:07;;;;;;;9.20;1.70;;;6.90;86.50;;;;;;9176744;19;20022;-67
2022/01/31 09:54:16;;;;;;;7.60;1.55;;;6.90;86.50;;;;;;9177029;19;20025;-68
2022/01/31 09:57:23;;;;;;;7.28;1.33;;;7.00;86.60;;;;;;9178317;19;20018;-68
2022/01/31 10:00:36;;;;;;;9.23;2.10;;;7.00;86.70;;;;;;9178935;19;20130;-67
2022/01/31 10:03:49;;;;;;;14.00;2.05;;;7.00;86.70;;;;;;9182150;19;20015;-67
2022/01/31 10:06:57;;;;;;;8.07;1.35;;;7.10;86.80;;;;;;9182932;19;20352;-67
2022/01/31 10:10:03;;;;;;;6.70;1.40;;;7.10;86.80;;;;;;9177579;19;20025;-67
2022/01/31 10:16:51;;;;;;;8.25;1.50;;;7.20;86.90;;;;;;9176025;19;20021;-67
2022/01/31 10:20:29;;;;;;;5.45;0.93;;;7.30;86.80;;;;;;9182155;19;20043;-67
2022/01/31 10:23:43;;;;;;;6.05;1.17;;;7.30;86.90;;;;;;9181279;19;20491;-67
2022/01/31 10:26:56;;;;;;;6.95;1.42;;;7.40;86.90;;;;;;9179519;19;20040;-67
2022/01/31 10:30:13;;;;;;;7.22;1.25;;;7.40;86.80;;;;;;9175797;19;20146;-67
2022/01/31 10:33:20;;;;;;;6.68;1.15;;;7.40;86.90;;;;;;9179260;19;20042;-68
2022/01/31 10:36:25;;;;;;;5.28;1.02;;;7.50;86.90;;;;;;9178746;19;20021;-67
2022/01/31 10:43:43;;;;;;;5.15;1.15;;;7.50;86.90;;;;;;9181885;19;20076;-67
2022/01/31 10:53:43;;;;;;;10.88;1.83;;;7.60;86.90;;;;;;9179623;19;20480;-67
2022/01/31 10:56:50;;;;;;;6.05;0.98;;;7.60;87.00;;;;;;9176918;19;20018;-67
2022/01/31 11:00:01;;;;;;;6.88;1.10;;;7.60;87.00;;;;;;9179250;19;20480;-68
2022/01/31 11:03:32;;;;;;;8.98;1.42;;;7.70;87.00;;;;;;9180340;19;20515;-67
2022/01/31 11:06:37;;;;;;;14.32;1.30;;;7.70;87.10;;;;;;9179037;19;20389;-67
2022/01/31 11:09:45;;;;;;;14.90;1.40;;;7.70;86.90;;;;;;9178037;19;20018;-67
2022/01/31 11:12:50;;;;;;;13.40;2.25;;;7.80;87.00;;;;;;9179971;19;20680;-68
2022/01/31 11:15:55;;;;;;;8.40;1.33;;;7.80;87.00;;;;;;9178662;19;20014;-68
2022/01/31 11:19:08;;;;;;;6.00;1.80;;;7.80;87.00;;;;;;9173297;19;20030;-68
2022/01/31 11:22:16;;;;;;;6.93;1.20;;;7.90;87.00;;;;;;9179447;19;20353;-68
2022/01/31 11:25:43;;;;;;;4.60;0.82;;;7.90;87.00;;;;;;9177411;19;20048;-68
2022/01/31 11:28:49;;;;;;;7.75;1.65;;;8.00;87.10;;;;;;9180285;19;20480;-67
2022/01/31 11:31:56;;;;;;;13.00;1.50;;;8.00;86.90;;;;;;9175743;19;20115;-68
2022/01/31 11:35:06;;;;;;;10.95;1.70;;;8.00;86.90;;;;;;9175534;19;20022;-68
2022/01/31 11:38:11;;;;;;;20.13;2.15;;;8.10;87.00;;;;;;9178336;19;20015;-68
2022/01/31 11:41:18;;;;;;;12.02;2.00;;;8.10;87.00;;;;;;9178608;19;20502;-67
2022/01/31 11:44:40;;;;;;;12.18;1.55;;;8.20;87.00;;;;;;9180615;19;20952;-68
2022/01/31 11:47:49;;;;;;;8.38;1.58;;;8.30;87.20;;;;;;9178397;19;20011;-67
2022/01/31 11:50:59;;;;;;;14.30;1.63;;;8.30;87.20;;;;;;9177438;19;20022;-67
2022/01/31 11:54:09;;;;;;;12.05;1.75;;;8.40;87.30;;;;;;9175394;19;20014;-68
2022/01/31 11:57:16;;;;;;;8.38;1.70;;;8.50;87.80;;;;;;9178952;19;20014;-68
2022/01/31 12:00:23;;;;;;;13.48;2.58;;;8.60;87.10;;;;;;9178191;19;20017;-68
2022/01/31 12:03:30;;;;;;;9.23;1.27;;;8.60;87.00;;;;;;9179656;19;20041;-67
2022/01/31 12:06:37;;;;;;;7.03;1.38;;;8.60;86.90;;;;;;9177240;19;20444;-68
2022/01/31 12:09:44;;;;;;;5.30;1.35;;;8.70;87.00;;;;;;9175816;19;20044;-68
2022/01/31 12:12:54;;;;;;;4.80;0.88;;;8.70;86.90;;;;;;9176492;19;20495;-68
2022/01/31 12:16:11;;;;;;;6.75;0.88;;;8.70;86.70;;;;;;9178240;19;20018;-68
2022/01/31 12:19:34;;;;;;;5.78;1.23;;;8.80;86.70;;;;;;9175860;19;20519;-68
2022/01/31 12:22:51;;;;;;;3.88;0.63;;;8.80;86.60;;;;;;9178414;19;20519;-70
2022/01/31 12:25:56;;;;;;;4.22;0.90;;;8.80;86.50;;;;;;9175889;19;20018;-68
2022/01/31 12:29:05;;;;;;;7.07;1.00;;;8.70;86.50;;;;;;9176501;19;20016;-68
2022/01/31 12:32:34;;;;;;;3.65;0.90;;;8.80;86.50;;;;;;9169085;19;20025;-68
2022/01/31 12:35:41;;;;;;;4.15;0.80;;;8.80;86.40;;;;;;9177558;19;20414;-68
2022/01/31 12:38:48;;;;;;;5.00;1.98;;;8.70;86.30;;;;;;9176160;19;20719;-68
2022/01/31 12:42:00;;;;;;;7.13;0.60;;;8.70;86.30;;;;;;9176828;19;20018;-68
2022/01/31 12:45:06;;;;;;;4.25;1.02;;;8.60;86.30;;;;;;9174490;19;20041;-67
2022/01/31 12:48:16;;;;;;;1.63;0.60;;;8.70;86.40;;;;;;9173790;19;20022;-68
2022/01/31 12:51:21;;;;;;;3.00;0.73;;;8.60;86.50;;;;;;9175313;19;20028;-68
2022/01/31 12:54:29;;;;;;;3.25;0.50;;;8.60;86.50;;;;;;9172966;19;20026;-68
2022/01/31 12:57:34;;;;;;;4.68;0.63;;;8.60;86.60;;;;;;9174376;19;20373;-68
2022/01/31 13:00:44;;;;;;;0.93;0.40;;;8.60;86.60;;;;;;9170955;19;20019;-68
2022/01/31 13:04:13;;;;;;;2.67;0.57;;;8.60;86.60;;;;;;9172110;19;20034;-68
2022/01/31 13:07:18;;;;;;;3.55;0.65;;;8.60;86.70;;;;;;9165697;19;20488;-68
2022/01/31 13:10:43;;;;;;;4.50;0.88;;;8.60;86.70;;;;;;9165964;19;20019;-68
2022/01/31 13:13:48;;;;;;;12.85;1.45;;;8.70;86.80;;;;;;9164107;19;20029;-67
2022/01/31 13:17:02;;;;;;;7.90;1.30;;;8.70;86.80;;;;;;9164755;19;20463;-68
2022/01/31 13:20:08;;;;;;;5.17;1.30;;;8.70;86.80;;;;;;9166018;19;20019;-68
2022/01/31 13:23:14;;;;;;;7.28;1.70;;;8.70;86.80;;;;;;9167231;19;20073;-68
2022/01/31 13:26:21;;;;;;;6.45;1.63;;;8.70;86.90;;;;;;9167112;19;20023;-68
2022/01/31 13:29:36;;;;;;;7.93;1.98;;;8.70;86.90;;;;;;9167213;19;20736;-68
2022/01/31 13:32:42;;;;;;;8.90;1.30;;;8.70;86.90;;;;;;9165135;19;20018;-68
2022/01/31 13:35:47;;;;;;;8.43;1.52;;;8.70;86.90;;;;;;9165109;19;20018;-68
2022/01/31 13:38:52;;;;;;;5.97;1.20;;;8.70;86.90;;;;;;9164455;19;20543;-68
2022/01/31 13:42:00;;;;;;;8.35;1.55;;;8.70;86.90;;;;;;9165490;19;20017;-68
2022/01/31 13:45:13;;;;;;;9.48;1.95;;;8.80;86.90;;;;;;9178143;19;20463;-68
2022/01/31 13:48:29;;;;;;;7.47;1.52;;;8.80;86.90;;;;;;9176864;19;20052;-68
2022/01/31 13:51:39;;;;;;;9.27;2.25;;;8.80;86.90;;;;;;9178744;19;20018;-68
2022/01/31 13:54:45;;;;;;;7.60;1.80;;;8.90;87.00;;;;;;9172721;19;20022;-67
2022/01/31 13:57:53;;;;;;;17.08;2.65;;;8.90;87.00;;;;;;9168651;19;20042;-68
2022/01/31 14:00:58;;;;;;;9.02;2.00;;;8.90;86.90;;;;;;9173757;19;20062;-68
2022/01/31 14:04:05;;;;;;;11.88;2.80;;;8.90;86.90;;;;;;9175422;19;20026;-68
2022/01/31 14:07:26;;;;;;;10.73;1.77;;;8.90;86.80;;;;;;9174207;19;20057;-68
2022/01/31 14:10:32;;;;;;;10.27;1.70;;;8.90;86.80;;;;;;9170312;19;20103;-67
2022/01/31 14:13:43;;;;;;;10.20;1.10;;;8.90;86.80;;;;;;9173309;19;20018;-67
2022/01/31 14:16:48;;;;;;;4.93;1.05;;;8.90;86.70;;;;;;9169652;19;20116;-68
2022/01/31 14:19:54;;;;;;;8.40;1.60;;;8.90;86.70;;;;;;9173402;19;20019;-67
2022/01/31 14:23:02;;;;;;;9.00;1.45;;;8.90;86.70;;;;;;9177114;19;20041;-69
2022/01/31 14:26:09;;;;;;;10.80;1.67;;;8.80;86.60;;;;;;9176716;19;20782;-68
2022/01/31 14:29:18;;;;;;;10.18;2.05;;;8.80;86.60;;;;;;9173873;19;20025;-68
2022/01/31 14:32:24;;;;;;;4.65;1.20;;;8.80;86.60;;;;;;9173557;19;20018;-68
2022/01/31 14:35:30;;;;;;;5.68;1.02;;;8.80;86.70;;;;;;9174302;19;20047;-67
2022/01/31 14:38:43;;;;;;;6.10;1.20;;;8.80;86.60;;;;;;9176232;19;20018;-67
2022/01/31 14:41:58;;;;;;;8.13;1.20;;;8.70;86.60;;;;;;9167634;19;20023;-68
2022/01/31 14:48:25;;;;;;;7.13;1.42;;;8.70;86.60;;;;;;9171926;19;20018;-67
2022/01/31 14:51:31;;;;;;;7.78;1.73;;;8.70;86.70;;;;;;9175101;19;20051;-68
2022/01/31 14:54:38;;;;;;;12.05;1.90;;;8.70;87.40;;;;;;9170622;19;20018;-68
2022/01/31 14:57:43;;;;;;;10.75;1.67;;;8.60;86.70;;;;;;9173651;19;20022;-68
2022/01/31 15:00:51;;;;;;;7.85;1.67;;;8.60;86.80;;;;;;9171463;19;20015;-68
2022/01/31 15:03:56;;;;;;;14.43;1.95;;;8.60;86.80;;;;;;9172485;19;20022;-67
2022/01/31 15:07:02;;;;;;;8.60;2.13;;;8.60;86.80;;;;;;9167702;19;20510;-67
2022/01/31 15:10:13;;;;;;;16.75;3.40;;;8.60;86.80;;;;;;9169918;19;20015;-68
2022/01/31 15:13:18;;;;;;;14.75;2.75;;;8.60;86.90;;;;;;9174389;19;20041;-68
2022/01/31 15:16:29;;;;;;;18.40;3.25;;;8.60;86.90;;;;;;9168138;19;20014;-67
2022/01/31 15:19:35;;;;;;;24.92;4.05;;;8.60;87.00;;;;;;9164143;19;20030;-67
2022/01/31 15:22:40;;;;;;;16.52;2.78;;;8.60;87.00;;;;;;9167882;19;20638;-67
2022/01/31 15:25:45;;;;;;;11.07;2.65;;;8.60;87.00;;;;;;9172635;19;20022;-67
2022/01/31 15:28:52;;;;;;;20.63;2.72;;;8.60;87.10;;;;;;9172994;19;20105;-68
2022/01/31 15:32:01;;;;;;;16.88;2.80;;;8.60;87.10;;;;;;9174636;19;20026;-68
2022/01/31 15:35:09;;;;;;;15.75;3.03;;;8.50;87.10;;;;;;9168851;19;20011;-68
2022/01/31 15:38:14;;;;;;;15.23;2.65;;;8.60;87.10;;;;;;9171503;19;20053;-67
2022/01/31 15:41:19;;;;;;;18.85;2.58;;;8.60;87.20;;;;;;9171628;19;20039;-68
2022/01/31 15:44:37;;;;;;;12.27;2.97;;;8.50;87.10;;;;;;9171506;19;20021;-68
2022/01/31 15:47:45;;;;;;;12.98;2.08;;;8.50;87.10;;;;;;9172517;19;20019;-67
2022/01/31 15:50:50;;;;;;;12.80;1.95;;;8.50;87.10;;;;;;9172587;19;20031;-67
2022/01/31 15:53:55;;;;;;;11.88;1.98;;;8.50;87.10;;;;;;9168435;19;20022;-67
2022/01/31 15:57:00;;;;;;;14.00;2.10;;;8.50;87.20;;;;;;9172659;19;20038;-67
2022/01/31 16:00:07;;;;;;;9.07;2.03;;;8.50;87.10;;;;;;9170678;19;20056;-68
2022/01/31 16:03:18;;;;;;;10.93;2.17;;;8.50;87.10;;;;;;9171269;19;20070;-67
2022/01/31 16:06:23;;;;;;;7.00;1.58;;;8.50;87.10;;;;;;9168227;19;20810;-67
2022/01/31 16:09:29;;;;;;;7.38;1.40;;;8.50;87.10;;;;;;9167093;19;20034;-67
2022/01/31 16:12:34;;;;;;;8.63;1.73;;;8.50;87.00;;;;;;9170269;19;20018;-69
2022/01/31 16:15:40;;;;;;;8.45;1.80;;;8.40;87.00;;;;;;9166985;19;20014;-67
2022/01/31 16:18:48;;;;;;;4.90;1.15;;;8.40;87.00;;;;;;9165840;19;20078;-67
2022/01/31 16:21:53;;;;;;;7.13;1.40;;;8.30;86.90;;;;;;9168576;19;20018;-67
2022/01/31 16:24:58;;;;;;;4.88;1.35;;;8.30;87.00;;;;;;9167194;19;20025;-67
2022/01/31 16:28:08;;;;;;;5.32;1.23;;;8.30;87.00;;;;;;9170615;19;20649;-67
2022/01/31 16:31:13;;;;;;;6.47;1.10;;;8.30;87.00;;;;;;9167176;19;20117;-66
2022/01/31 16:34:22;;;;;;;6.68;1.05;;;8.30;87.00;;;;;;9169876;19;20023;-67
2022/01/31 16:37:27;;;;;;;10.98;1.40;;;8.20;86.90;;;;;;9167607;19;20038;-67
2022/01/31 16:40:32;;;;;;;8.45;1.27;;;8.20;87.00;;;;;;9170613;19;20018;-67
2022/01/31 16:43:37;;;;;;;3.25;1.40;;;8.20;86.90;;;;;;9167429;19;20018;-66
2022/01/31 16:46:44;;;;;;;4.90;0.93;;;8.20;87.00;;;;;;9172633;19;20011;-66
2022/01/31 16:49:53;;;;;;;3.13;0.63;;;8.10;86.90;;;;;;9169447;19;20022;-67